createdAt,value
2019-01-30T00:00:58.506Z,35.40
2019-01-30T00:01:58.500Z,31.50
2019-01-30T00:02:58.518Z,39.10
2019-01-30T00:03:58.479Z,28.50
2019-01-30T00:04:58.461Z,26.80
2019-01-30T00:05:58.452Z,32.10
2019-01-30T00:06:58.441Z,32.30
2019-01-30T00:07:58.430Z,25.20
2019-01-30T00:08:58.458Z,34.60
2019-01-30T00:09:58.419Z,29.70
2019-01-30T00:10:58.411Z,34.70
2019-01-30T00:11:58.396Z,38.30
2019-01-30T00:12:58.383Z,27.00
2019-01-30T00:13:58.372Z,26.90
2019-01-30T00:14:58.527Z,24.60
2019-01-30T00:15:58.351Z,35.80
2019-01-30T00:16:58.341Z,30.50
2019-01-30T00:17:58.327Z,28.10
2019-01-30T00:18:58.314Z,32.40
2019-01-30T00:19:58.306Z,29.20
2019-01-30T00:20:58.329Z,31.80
2019-01-30T00:22:08.808Z,28.20
2019-01-30T00:22:58.273Z,29.40
2019-01-30T00:23:58.268Z,30.10
2019-01-30T00:24:58.256Z,35.60
2019-01-30T00:25:58.241Z,30.70
2019-01-30T00:26:58.281Z,34.40
2019-01-30T00:27:58.228Z,28.60
2019-01-30T00:28:58.216Z,31.20
2019-01-30T00:30:04.040Z,38.10
2019-01-30T00:30:59.199Z,29.90
2019-01-30T00:31:58.186Z,34.30
2019-01-30T00:32:58.210Z,32.90
2019-01-30T00:33:58.160Z,30.20
2019-01-30T00:34:58.151Z,32.80
2019-01-30T00:35:58.141Z,35.20
2019-01-30T00:36:58.139Z,39.40
2019-01-30T00:37:58.608Z,32.60
2019-01-30T00:38:58.141Z,35.50
2019-01-30T00:39:58.100Z,37.70
2019-01-30T00:40:58.086Z,43.60
2019-01-30T00:41:58.081Z,33.40
2019-01-30T00:42:58.070Z,31.20
2019-01-30T00:43:58.152Z,43.50
2019-01-30T00:44:58.253Z,35.30
2019-01-30T00:45:58.033Z,44.00
2019-01-30T00:46:58.109Z,43.00
2019-01-30T00:47:58.020Z,43.40
2019-01-30T00:48:58.011Z,42.50
2019-01-30T00:49:57.995Z,46.90
2019-01-30T00:50:58.017Z,44.80
2019-01-30T00:51:57.978Z,33.50
2019-01-30T00:53:08.268Z,41.50
2019-01-30T00:53:57.956Z,46.80
2019-01-30T00:54:57.946Z,49.00
2019-01-30T00:55:57.930Z,52.90
2019-01-30T00:56:57.957Z,43.80
2019-01-30T00:57:57.921Z,42.30
2019-01-30T00:58:57.903Z,40.00
2019-01-30T00:59:57.889Z,46.90
2019-01-30T01:00:58.358Z,54.90
2019-01-30T01:01:57.880Z,48.10
2019-01-30T01:02:57.901Z,45.10
2019-01-30T01:03:57.847Z,48.70
2019-01-30T01:04:57.839Z,44.40
2019-01-30T01:05:57.829Z,48.40
2019-01-30T01:06:57.825Z,46.30
2019-01-30T01:07:57.812Z,49.10
2019-01-30T01:08:57.836Z,48.70
2019-01-30T01:09:57.788Z,40.70
2019-01-30T01:10:57.782Z,42.60
2019-01-30T01:11:57.770Z,44.90
2019-01-30T01:12:57.760Z,47.20
2019-01-30T01:13:57.743Z,55.50
2019-01-30T01:14:57.915Z,44.60
2019-01-30T01:15:57.731Z,54.20
2019-01-30T01:16:57.716Z,47.40
2019-01-30T01:17:57.707Z,49.80
2019-01-30T01:18:57.698Z,49.50
2019-01-30T01:19:57.691Z,47.60
2019-01-30T01:20:57.712Z,42.70
2019-01-30T01:21:57.663Z,43.70
2019-01-30T01:22:57.654Z,60.50
2019-01-30T01:24:07.686Z,45.00
2019-01-30T01:24:57.634Z,52.10
2019-01-30T01:25:57.618Z,59.70
2019-01-30T01:26:57.644Z,54.20
2019-01-30T01:27:57.596Z,53.90
2019-01-30T01:28:57.590Z,50.80
2019-01-30T01:29:57.575Z,48.90
2019-01-30T01:30:57.567Z,55.90
2019-01-30T01:31:57.565Z,57.20
2019-01-30T01:32:57.595Z,51.00
2019-01-30T01:33:57.540Z,51.80
2019-01-30T01:34:57.528Z,54.50
2019-01-30T01:35:57.514Z,46.90
2019-01-30T01:36:57.512Z,39.90
2019-01-30T01:37:57.498Z,59.20
2019-01-30T01:38:57.597Z,51.30
2019-01-30T01:39:57.474Z,59.40
2019-01-30T01:40:57.469Z,51.10
2019-01-30T01:41:57.458Z,54.50
2019-01-30T01:42:57.531Z,57.80
2019-01-30T01:43:57.438Z,53.60
2019-01-30T01:44:57.440Z,62.70
2019-01-30T01:45:57.417Z,56.20
2019-01-30T01:46:57.401Z,48.40
2019-01-30T01:47:57.392Z,57.40
2019-01-30T01:48:57.390Z,51.90
2019-01-30T01:49:57.381Z,45.30
2019-01-30T01:50:57.401Z,60.50
2019-01-30T01:51:57.351Z,54.60
2019-01-30T01:52:57.377Z,56.90
2019-01-30T01:53:57.329Z,65.20
2019-01-30T01:55:09.105Z,50.30
2019-01-30T01:55:57.309Z,57.50
2019-01-30T01:56:57.320Z,56.10
2019-01-30T01:57:57.291Z,50.70
2019-01-30T01:58:57.286Z,54.50
2019-01-30T01:59:57.268Z,46.40
2019-01-30T02:00:57.258Z,61.40
2019-01-30T02:01:57.259Z,65.80
2019-01-30T02:02:57.278Z,47.60
2019-01-30T02:03:57.230Z,53.90
2019-01-30T02:04:57.217Z,32.30
2019-01-30T02:05:57.206Z,47.60
2019-01-30T02:06:57.204Z,56.80
2019-01-30T02:07:57.190Z,54.10
2019-01-30T02:08:57.203Z,44.70
2019-01-30T02:09:57.167Z,53.10
2019-01-30T02:10:57.155Z,52.70
2019-01-30T02:11:57.151Z,46.70
2019-01-30T02:12:57.136Z,49.10
2019-01-30T02:13:57.128Z,55.20
2019-01-30T02:14:57.158Z,42.10
2019-01-30T02:15:57.105Z,51.60
2019-01-30T02:16:57.090Z,51.70
2019-01-30T02:17:57.082Z,48.50
2019-01-30T02:18:57.079Z,57.40
2019-01-30T02:19:57.067Z,60.70
2019-01-30T02:20:57.091Z,49.10
2019-01-30T02:21:57.040Z,48.80
2019-01-30T02:22:57.029Z,60.60
2019-01-30T02:23:57.019Z,56.70
2019-01-30T02:24:57.009Z,65.80
2019-01-30T02:26:07.617Z,59.80
2019-01-30T02:26:56.994Z,65.70
2019-01-30T02:27:56.978Z,55.40
2019-01-30T02:28:56.967Z,58.00
2019-01-30T02:29:56.959Z,61.20
2019-01-30T02:30:56.988Z,60.90
2019-01-30T02:31:56.976Z,54.20
2019-01-30T02:32:56.932Z,57.20
2019-01-30T02:33:56.921Z,56.30
2019-01-30T02:34:56.905Z,44.00
2019-01-30T02:35:56.895Z,63.60
2019-01-30T02:36:56.889Z,60.60
2019-01-30T02:37:57.081Z,60.80
2019-01-30T02:38:56.867Z,59.50
2019-01-30T02:39:56.856Z,54.90
2019-01-30T02:40:56.847Z,68.40
2019-01-30T02:41:56.836Z,61.90
2019-01-30T02:42:56.819Z,64.40
2019-01-30T02:43:56.850Z,62.40
2019-01-30T02:44:56.801Z,63.50
2019-01-30T02:45:56.798Z,59.70
2019-01-30T02:46:56.779Z,57.40
2019-01-30T02:47:56.769Z,51.80
2019-01-30T02:48:56.759Z,44.00
2019-01-30T02:49:56.781Z,51.20
2019-01-30T02:50:56.737Z,56.60
2019-01-30T02:51:56.738Z,55.50
2019-01-30T02:52:56.716Z,58.40
2019-01-30T02:53:56.705Z,56.90
2019-01-30T02:54:56.700Z,52.80
2019-01-30T02:55:56.724Z,63.30
2019-01-30T02:57:06.828Z,68.00
2019-01-30T02:57:56.668Z,64.00
2019-01-30T02:58:56.750Z,48.10
2019-01-30T02:59:56.653Z,51.90
2019-01-30T03:00:59.250Z,55.80
2019-01-30T03:01:56.670Z,53.90
2019-01-30T03:02:56.621Z,41.00
2019-01-30T03:03:56.605Z,52.90
2019-01-30T03:04:56.599Z,55.10
2019-01-30T03:05:56.580Z,58.30
2019-01-30T03:06:56.575Z,55.90
2019-01-30T03:07:56.586Z,63.90
2019-01-30T03:08:56.553Z,64.30
2019-01-30T03:09:56.541Z,49.00
2019-01-30T03:10:56.533Z,54.30
2019-01-30T03:11:56.528Z,44.80
2019-01-30T03:12:56.511Z,51.80
2019-01-30T03:13:56.532Z,55.70
2019-01-30T03:14:56.492Z,54.80
2019-01-30T03:15:56.482Z,56.90
2019-01-30T03:16:56.464Z,61.20
2019-01-30T03:17:56.463Z,61.00
2019-01-30T03:18:56.449Z,61.30
2019-01-30T03:19:56.467Z,61.20
2019-01-30T03:20:56.429Z,51.90
2019-01-30T03:21:56.425Z,68.60
2019-01-30T03:22:56.412Z,58.70
2019-01-30T03:23:56.400Z,50.80
2019-01-30T03:24:56.386Z,64.90
2019-01-30T03:25:56.395Z,59.80
2019-01-30T03:26:56.360Z,69.70
2019-01-30T03:28:07.093Z,52.80
2019-01-30T03:28:56.344Z,52.40
2019-01-30T03:29:56.334Z,58.40
2019-01-30T03:30:56.336Z,53.30
2019-01-30T03:31:56.354Z,54.30
2019-01-30T03:32:56.313Z,54.90
2019-01-30T03:33:56.294Z,49.10
2019-01-30T03:34:56.284Z,50.70
2019-01-30T03:35:56.273Z,58.50
2019-01-30T03:36:56.271Z,66.40
2019-01-30T03:37:56.283Z,66.50
2019-01-30T03:38:56.240Z,48.50
2019-01-30T03:39:56.228Z,55.40
2019-01-30T03:40:56.223Z,53.20
2019-01-30T03:41:56.208Z,57.70
2019-01-30T03:42:56.193Z,56.10
2019-01-30T03:43:56.458Z,43.10
2019-01-30T03:44:56.177Z,57.00
2019-01-30T03:45:56.162Z,56.70
2019-01-30T03:46:56.162Z,63.60
2019-01-30T03:47:56.158Z,50.50
2019-01-30T03:48:56.134Z,53.70
2019-01-30T03:49:56.145Z,56.60
2019-01-30T03:50:56.114Z,55.70
2019-01-30T03:51:56.101Z,59.50
2019-01-30T03:52:56.096Z,66.70
2019-01-30T03:53:56.089Z,53.60
2019-01-30T03:54:56.073Z,59.60
2019-01-30T03:55:56.105Z,68.20
2019-01-30T03:56:56.058Z,60.50
2019-01-30T03:57:56.042Z,54.80
2019-01-30T03:59:05.981Z,56.90
2019-01-30T03:59:56.020Z,77.20
2019-01-30T04:00:56.013Z,54.20
2019-01-30T04:01:56.044Z,63.10
2019-01-30T04:02:55.998Z,55.30
2019-01-30T04:03:55.984Z,59.90
2019-01-30T04:04:56.062Z,60.50
2019-01-30T04:05:55.962Z,59.60
2019-01-30T04:06:55.946Z,63.80
2019-01-30T04:07:55.986Z,55.10
2019-01-30T04:08:55.931Z,71.60
2019-01-30T04:09:55.922Z,46.50
2019-01-30T04:10:55.906Z,51.40
2019-01-30T04:11:55.903Z,57.10
2019-01-30T04:12:55.897Z,62.00
2019-01-30T04:13:55.913Z,62.90
2019-01-30T04:14:55.865Z,54.50
2019-01-30T04:15:55.857Z,62.30
2019-01-30T04:16:55.847Z,60.70
2019-01-30T04:17:55.833Z,53.00
2019-01-30T04:18:55.827Z,65.80
2019-01-30T04:19:55.858Z,62.50
2019-01-30T04:20:55.803Z,59.60
2019-01-30T04:21:55.798Z,60.00
2019-01-30T04:22:55.779Z,55.10
2019-01-30T04:23:55.773Z,56.90
2019-01-30T04:24:55.765Z,74.90
2019-01-30T04:25:55.769Z,75.20
2019-01-30T04:26:55.742Z,62.60
2019-01-30T04:27:55.727Z,66.80
2019-01-30T04:28:55.719Z,59.90
2019-01-30T04:30:06.013Z,55.10
2019-01-30T04:30:55.706Z,66.10
2019-01-30T04:31:55.731Z,60.30
2019-01-30T04:32:55.679Z,59.90
2019-01-30T04:33:55.666Z,57.90
2019-01-30T04:34:55.669Z,58.60
2019-01-30T04:35:55.654Z,63.80
2019-01-30T04:36:55.635Z,58.80
2019-01-30T04:37:55.655Z,47.40
2019-01-30T04:38:55.619Z,55.00
2019-01-30T04:39:55.605Z,62.50
2019-01-30T04:40:55.598Z,53.90
2019-01-30T04:41:55.589Z,58.00
2019-01-30T04:42:55.585Z,67.00
2019-01-30T04:43:55.597Z,54.90
2019-01-30T04:44:55.557Z,54.70
2019-01-30T04:45:55.552Z,61.20
2019-01-30T04:46:55.530Z,70.80
2019-01-30T04:47:55.532Z,53.10
2019-01-30T04:48:55.516Z,62.70
2019-01-30T04:49:55.551Z,52.30
2019-01-30T04:50:55.496Z,60.40
2019-01-30T04:51:55.485Z,55.70
2019-01-30T04:52:55.473Z,59.20
2019-01-30T04:53:55.466Z,67.90
2019-01-30T04:54:55.452Z,63.80
2019-01-30T04:55:55.549Z,69.60
2019-01-30T04:56:55.435Z,49.90
2019-01-30T04:57:58.140Z,57.10
2019-01-30T04:58:55.412Z,58.30
2019-01-30T04:59:55.395Z,56.70
2019-01-30T05:01:06.180Z,66.70
2019-01-30T05:01:55.380Z,64.50
2019-01-30T05:02:55.370Z,66.50
2019-01-30T05:03:55.355Z,55.70
2019-01-30T05:04:55.351Z,55.10
2019-01-30T05:05:55.346Z,55.30
2019-01-30T05:06:55.369Z,62.40
2019-01-30T05:07:55.316Z,55.70
2019-01-30T05:08:56.058Z,60.10
2019-01-30T05:09:55.307Z,58.80
2019-01-30T05:10:55.369Z,65.70
2019-01-30T05:11:55.277Z,57.50
2019-01-30T05:12:55.300Z,57.40
2019-01-30T05:13:55.253Z,63.10
2019-01-30T05:14:55.253Z,65.80
2019-01-30T05:15:55.235Z,67.90
2019-01-30T05:16:55.235Z,57.80
2019-01-30T05:17:55.212Z,60.80
2019-01-30T05:18:55.401Z,69.40
2019-01-30T05:19:55.187Z,68.10
2019-01-30T05:20:55.183Z,62.60
2019-01-30T05:21:55.169Z,63.10
2019-01-30T05:22:55.162Z,61.00
2019-01-30T05:23:55.154Z,65.30
2019-01-30T05:24:55.181Z,61.70
2019-01-30T05:25:55.125Z,63.20
2019-01-30T05:26:55.121Z,59.20
2019-01-30T05:27:55.104Z,52.40
2019-01-30T05:28:55.093Z,52.10
2019-01-30T05:29:55.089Z,56.60
2019-01-30T05:30:55.115Z,63.20
2019-01-30T05:32:05.242Z,53.20
2019-01-30T05:32:55.057Z,51.80
2019-01-30T05:33:55.045Z,62.00
2019-01-30T05:34:55.035Z,49.40
2019-01-30T05:35:55.018Z,49.50
2019-01-30T05:36:55.032Z,60.50
2019-01-30T05:37:55.004Z,61.50
2019-01-30T05:38:54.996Z,53.90
2019-01-30T05:39:54.977Z,61.50
2019-01-30T05:40:54.980Z,50.40
2019-01-30T05:41:54.957Z,48.00
2019-01-30T05:42:54.984Z,50.90
2019-01-30T05:43:54.935Z,49.80
2019-01-30T05:44:54.931Z,55.30
2019-01-30T05:45:54.918Z,51.10
2019-01-30T05:46:54.910Z,46.10
2019-01-30T05:47:54.901Z,57.40
2019-01-30T05:48:54.919Z,44.20
2019-01-30T05:49:54.881Z,47.20
2019-01-30T05:50:54.867Z,49.70
2019-01-30T05:51:54.858Z,55.70
2019-01-30T05:52:54.848Z,40.30
2019-01-30T05:53:54.835Z,44.50
2019-01-30T05:54:54.857Z,53.40
2019-01-30T05:55:54.816Z,52.30
2019-01-30T05:56:54.807Z,52.50
2019-01-30T05:57:54.807Z,50.50
2019-01-30T05:58:54.783Z,50.90
2019-01-30T05:59:54.768Z,47.70
2019-01-30T06:00:54.800Z,44.30
2019-01-30T06:01:54.753Z,46.20
2019-01-30T06:03:05.033Z,46.20
2019-01-30T06:03:54.730Z,51.30
2019-01-30T06:04:54.721Z,48.10
2019-01-30T06:05:54.711Z,46.30
2019-01-30T06:06:54.733Z,55.00
2019-01-30T06:07:54.692Z,48.40
2019-01-30T06:08:54.680Z,44.60
2019-01-30T06:09:54.672Z,38.60
2019-01-30T06:10:54.657Z,42.50
2019-01-30T06:11:54.651Z,49.30
2019-01-30T06:12:54.683Z,44.40
2019-01-30T06:13:54.629Z,43.60
2019-01-30T06:14:54.613Z,48.10
2019-01-30T06:15:54.611Z,48.90
2019-01-30T06:16:54.640Z,48.50
2019-01-30T06:17:54.587Z,39.00
2019-01-30T06:18:54.616Z,38.40
2019-01-30T06:19:54.561Z,47.00
2019-01-30T06:20:54.552Z,48.00
2019-01-30T06:21:54.545Z,40.60
2019-01-30T06:22:54.536Z,41.20
2019-01-30T06:23:54.532Z,44.70
2019-01-30T06:24:54.548Z,40.90
2019-01-30T06:25:54.499Z,46.00
2019-01-30T06:26:54.490Z,42.10
2019-01-30T06:27:54.478Z,43.30
2019-01-30T06:28:54.476Z,41.40
2019-01-30T06:29:54.466Z,41.60
2019-01-30T06:30:54.482Z,38.40
2019-01-30T06:31:54.438Z,41.20
2019-01-30T06:32:54.424Z,50.80
2019-01-30T06:34:06.106Z,36.60
2019-01-30T06:34:56.646Z,43.70
2019-01-30T06:35:54.403Z,42.50
2019-01-30T06:36:54.408Z,39.40
2019-01-30T06:37:54.389Z,36.20
2019-01-30T06:38:54.377Z,37.20
2019-01-30T06:39:54.361Z,43.50
2019-01-30T06:40:54.345Z,40.20
2019-01-30T06:41:54.338Z,40.50
2019-01-30T06:42:54.360Z,44.70
2019-01-30T06:43:54.317Z,36.20
2019-01-30T06:44:54.321Z,39.70
2019-01-30T06:45:54.301Z,37.10
2019-01-30T06:46:54.288Z,39.00
2019-01-30T06:47:54.274Z,32.90
2019-01-30T06:48:56.229Z,43.60
2019-01-30T06:49:54.253Z,48.20
2019-01-30T06:50:54.242Z,36.50
2019-01-30T06:51:54.240Z,42.30
2019-01-30T06:52:54.226Z,45.30
2019-01-30T06:53:54.217Z,37.30
2019-01-30T06:54:54.240Z,40.80
2019-01-30T06:55:54.188Z,40.00
2019-01-30T06:56:54.179Z,32.70
2019-01-30T06:57:54.167Z,40.40
2019-01-30T06:58:54.161Z,41.70
2019-01-30T06:59:54.148Z,40.60
2019-01-30T07:00:54.216Z,44.10
2019-01-30T07:01:54.123Z,42.70
2019-01-30T07:02:54.120Z,31.30
2019-01-30T07:03:54.102Z,26.50
2019-01-30T07:05:04.424Z,35.30
2019-01-30T07:05:54.087Z,41.60
2019-01-30T07:06:54.113Z,43.90
2019-01-30T07:07:54.064Z,41.90
2019-01-30T07:08:54.062Z,33.50
2019-01-30T07:09:54.052Z,36.00
2019-01-30T07:10:54.029Z,41.50
2019-01-30T07:11:54.020Z,46.20
2019-01-30T07:12:54.069Z,42.10
2019-01-30T07:13:54.000Z,46.30
2019-01-30T07:14:53.989Z,45.10
2019-01-30T07:15:53.989Z,43.30
2019-01-30T07:16:53.970Z,41.60
2019-01-30T07:17:53.969Z,43.30
2019-01-30T07:18:53.985Z,38.40
2019-01-30T07:19:53.943Z,40.10
2019-01-30T07:20:53.933Z,43.40
2019-01-30T07:21:53.931Z,41.00
2019-01-30T07:22:53.914Z,40.00
2019-01-30T07:23:53.908Z,40.00
2019-01-30T07:24:54.055Z,36.80
2019-01-30T07:25:53.888Z,40.40
2019-01-30T07:26:53.865Z,37.90
2019-01-30T07:27:53.856Z,40.10
2019-01-30T07:28:53.872Z,36.50
2019-01-30T07:29:53.851Z,39.00
2019-01-30T07:30:53.886Z,33.90
2019-01-30T07:31:53.828Z,37.70
2019-01-30T07:32:53.803Z,41.20
2019-01-30T07:33:53.799Z,43.30
2019-01-30T07:34:53.780Z,36.70
2019-01-30T07:36:04.730Z,28.70
2019-01-30T07:36:53.765Z,42.20
2019-01-30T07:37:53.757Z,35.30
2019-01-30T07:38:53.742Z,41.70
2019-01-30T07:39:53.731Z,39.40
2019-01-30T07:40:53.733Z,34.90
2019-01-30T07:41:53.885Z,32.50
2019-01-30T07:42:53.725Z,36.80
2019-01-30T07:43:53.695Z,38.50
2019-01-30T07:44:53.686Z,44.00
2019-01-30T07:45:53.674Z,41.80
2019-01-30T07:46:53.666Z,32.30
2019-01-30T07:47:53.683Z,34.50
2019-01-30T07:48:53.650Z,39.90
2019-01-30T07:49:53.628Z,37.20
2019-01-30T07:50:53.615Z,37.20
2019-01-30T07:51:53.605Z,34.10
2019-01-30T07:52:53.597Z,33.00
2019-01-30T07:53:54.872Z,35.50
2019-01-30T07:54:53.588Z,35.60
2019-01-30T07:55:53.564Z,35.50
2019-01-30T07:56:53.764Z,36.30
2019-01-30T07:57:53.544Z,35.90
2019-01-30T07:58:53.537Z,31.60
2019-01-30T07:59:53.568Z,36.10
2019-01-30T08:00:53.515Z,36.20
2019-01-30T08:01:53.511Z,34.70
2019-01-30T08:02:53.840Z,34.70
2019-01-30T08:03:53.482Z,31.50
2019-01-30T08:04:53.471Z,28.90
2019-01-30T08:05:53.511Z,32.30
2019-01-30T08:07:03.641Z,31.90
2019-01-30T08:07:54.436Z,32.00
2019-01-30T08:08:53.462Z,28.90
2019-01-30T08:09:53.418Z,30.50
2019-01-30T08:10:53.407Z,31.90
2019-01-30T08:11:53.440Z,29.80
2019-01-30T08:12:53.390Z,31.20
2019-01-30T08:13:53.378Z,32.80
2019-01-30T08:14:53.734Z,30.70
2019-01-30T08:15:53.356Z,33.10
2019-01-30T08:16:53.562Z,33.60
2019-01-30T08:17:53.381Z,28.30
2019-01-30T08:18:53.325Z,30.60
2019-01-30T08:19:53.390Z,29.90
2019-01-30T08:20:53.394Z,29.60
2019-01-30T08:21:53.355Z,28.70
2019-01-30T08:22:53.431Z,32.70
2019-01-30T08:23:53.295Z,32.50
2019-01-30T08:24:53.341Z,21.60
2019-01-30T08:25:53.531Z,26.90
2019-01-30T08:26:53.261Z,25.30
2019-01-30T08:27:54.392Z,28.90
2019-01-30T08:28:53.252Z,27.20
2019-01-30T08:29:53.511Z,25.20
2019-01-30T08:30:53.392Z,27.70
2019-01-30T08:31:53.682Z,26.60
2019-01-30T08:33:03.743Z,25.00
2019-01-30T08:33:54.175Z,23.70
2019-01-30T08:34:53.155Z,22.80
2019-01-30T08:35:53.164Z,23.50
2019-01-30T08:36:53.130Z,24.60
2019-01-30T08:38:06.591Z,24.10
2019-01-30T08:38:53.112Z,28.70
2019-01-30T08:39:53.109Z,26.10
2019-01-30T08:40:53.088Z,26.30
2019-01-30T08:41:53.117Z,19.50
2019-01-30T08:42:53.075Z,18.20
2019-01-30T08:43:53.073Z,23.60
2019-01-30T08:44:53.051Z,27.10
2019-01-30T08:45:53.041Z,22.70
2019-01-30T08:46:53.034Z,22.70
2019-01-30T08:47:53.057Z,18.30
2019-01-30T08:48:53.008Z,23.70
2019-01-30T08:49:53.007Z,27.10
2019-01-30T08:50:52.986Z,26.90
2019-01-30T08:51:52.988Z,15.80
2019-01-30T08:52:52.963Z,25.60
2019-01-30T08:53:52.987Z,27.70
2019-01-30T08:54:52.947Z,22.40
2019-01-30T08:55:52.929Z,21.30
2019-01-30T08:56:53.362Z,26.00
2019-01-30T08:57:52.916Z,25.10
2019-01-30T08:58:52.907Z,21.50
2019-01-30T08:59:52.937Z,26.70
2019-01-30T09:00:52.880Z,25.40
2019-01-30T09:01:52.873Z,17.50
2019-01-30T09:02:52.859Z,21.30
2019-01-30T09:03:52.850Z,21.60
2019-01-30T09:04:52.844Z,22.10
2019-01-30T09:05:52.865Z,20.70
2019-01-30T09:06:52.815Z,20.60
2019-01-30T09:07:52.803Z,15.40
2019-01-30T09:09:03.467Z,17.70
2019-01-30T09:09:52.783Z,16.40
2019-01-30T09:10:52.774Z,16.50
2019-01-30T09:11:52.834Z,22.00
2019-01-30T09:12:52.755Z,19.50
2019-01-30T09:13:52.817Z,26.70
2019-01-30T09:14:52.735Z,19.60
2019-01-30T09:15:52.758Z,22.70
2019-01-30T09:16:52.721Z,26.30
2019-01-30T09:17:52.755Z,21.80
2019-01-30T09:18:52.704Z,23.50
2019-01-30T09:19:52.679Z,27.20
2019-01-30T09:20:52.679Z,20.50
2019-01-30T09:21:52.660Z,21.20
2019-01-30T09:22:52.725Z,26.00
2019-01-30T09:23:52.677Z,24.00
2019-01-30T09:24:52.637Z,23.50
2019-01-30T09:25:52.614Z,19.50
2019-01-30T09:26:52.607Z,19.10
2019-01-30T09:27:52.616Z,21.40
2019-01-30T09:28:52.581Z,22.80
2019-01-30T09:29:52.623Z,21.10
2019-01-30T09:30:52.561Z,23.70
2019-01-30T09:31:52.555Z,25.10
2019-01-30T09:32:55.183Z,22.70
2019-01-30T09:33:53.298Z,26.40
2019-01-30T09:34:52.545Z,24.30
2019-01-30T09:35:52.678Z,25.50
2019-01-30T09:36:52.535Z,25.40
2019-01-30T09:37:52.495Z,23.40
2019-01-30T09:38:52.489Z,24.20
2019-01-30T09:40:04.655Z,21.40
2019-01-30T09:40:52.459Z,26.10
2019-01-30T09:41:52.490Z,19.60
2019-01-30T09:42:52.468Z,23.60
2019-01-30T09:43:52.437Z,26.70
2019-01-30T09:44:52.445Z,22.50
2019-01-30T09:45:52.403Z,26.30
2019-01-30T09:46:52.406Z,21.00
2019-01-30T09:47:52.502Z,27.30
2019-01-30T09:48:52.407Z,23.20
2019-01-30T09:49:52.364Z,24.60
2019-01-30T09:50:52.354Z,29.60
2019-01-30T09:51:52.369Z,23.50
2019-01-30T09:52:52.333Z,24.30
2019-01-30T09:53:52.485Z,27.50
2019-01-30T09:54:52.310Z,26.40
2019-01-30T09:55:52.326Z,24.90
2019-01-30T09:56:52.289Z,27.90
2019-01-30T09:57:52.286Z,27.40
2019-01-30T09:58:52.268Z,23.50
2019-01-30T09:59:52.291Z,26.10
2019-01-30T10:00:52.244Z,22.80
2019-01-30T10:01:52.241Z,27.60
2019-01-30T10:02:52.232Z,25.80
2019-01-30T10:03:52.213Z,25.60
2019-01-30T10:04:52.213Z,28.50
2019-01-30T10:05:52.235Z,25.40
2019-01-30T10:06:52.180Z,23.90
2019-01-30T10:07:52.174Z,21.80
2019-01-30T10:08:52.174Z,27.50
2019-01-30T10:09:52.153Z,21.40
2019-01-30T10:11:02.875Z,29.90
2019-01-30T10:11:52.135Z,22.60
2019-01-30T10:12:52.123Z,22.80
2019-01-30T10:13:52.113Z,20.80
2019-01-30T10:14:52.102Z,23.30
2019-01-30T10:15:52.117Z,24.30
2019-01-30T10:16:52.132Z,24.00
2019-01-30T10:17:52.071Z,26.40
2019-01-30T10:18:52.064Z,24.10
2019-01-30T10:19:52.050Z,26.00
2019-01-30T10:20:52.040Z,26.00
2019-01-30T10:21:52.029Z,23.60
2019-01-30T10:22:52.054Z,26.00
2019-01-30T10:23:52.018Z,26.00
2019-01-30T10:24:51.994Z,23.00
2019-01-30T10:25:51.985Z,26.20
2019-01-30T10:26:51.973Z,25.60
2019-01-30T10:27:51.969Z,23.10
2019-01-30T10:28:51.968Z,24.00
2019-01-30T10:29:51.937Z,21.60
2019-01-30T10:30:51.936Z,19.60
2019-01-30T10:31:51.920Z,24.40
2019-01-30T10:32:51.956Z,27.30
2019-01-30T10:33:51.899Z,27.10
2019-01-30T10:34:52.054Z,26.90
2019-01-30T10:35:51.899Z,25.10
2019-01-30T10:36:51.867Z,23.90
2019-01-30T10:37:51.859Z,27.40
2019-01-30T10:38:51.851Z,26.70
2019-01-30T10:39:52.810Z,27.60
2019-01-30T10:40:51.899Z,25.20
2019-01-30T10:42:02.576Z,23.70
2019-01-30T10:42:51.802Z,26.10
2019-01-30T10:43:51.794Z,25.50
2019-01-30T10:44:51.781Z,22.40
2019-01-30T10:45:51.769Z,27.80
2019-01-30T10:46:51.806Z,20.60
2019-01-30T10:47:51.753Z,25.00
2019-01-30T10:48:51.742Z,20.50
2019-01-30T10:49:51.746Z,26.00
2019-01-30T10:50:51.736Z,25.50
2019-01-30T10:51:51.795Z,26.30
2019-01-30T10:52:51.736Z,21.70
2019-01-30T10:53:51.696Z,26.70
2019-01-30T10:54:51.688Z,25.70
2019-01-30T10:55:51.671Z,28.20
2019-01-30T10:56:51.657Z,26.20
2019-01-30T10:57:51.682Z,26.70
2019-01-30T10:58:51.673Z,24.90
2019-01-30T10:59:51.624Z,30.60
2019-01-30T11:00:51.622Z,22.10
2019-01-30T11:01:51.606Z,28.10
2019-01-30T11:02:51.604Z,26.60
2019-01-30T11:03:57.386Z,29.90
2019-01-30T11:04:52.621Z,28.50
2019-01-30T11:05:51.564Z,25.80
2019-01-30T11:06:51.554Z,25.30
2019-01-30T11:07:51.543Z,24.30
2019-01-30T11:08:51.540Z,30.60
2019-01-30T11:09:51.520Z,26.10
2019-01-30T11:10:51.550Z,14.30
2019-01-30T11:11:51.499Z,29.80
2019-01-30T11:13:03.793Z,26.60
2019-01-30T11:13:51.474Z,25.20
2019-01-30T11:14:51.471Z,28.30
2019-01-30T11:15:51.458Z,21.30
2019-01-30T11:16:51.496Z,27.70
2019-01-30T11:17:51.439Z,27.40
2019-01-30T11:18:51.466Z,26.30
2019-01-30T11:19:51.442Z,24.00
2019-01-30T11:20:51.406Z,27.90
2019-01-30T11:21:51.398Z,25.10
2019-01-30T11:22:53.710Z,26.90
2019-01-30T11:23:51.380Z,25.30
2019-01-30T11:24:51.372Z,30.00
2019-01-30T11:25:51.350Z,28.90
2019-01-30T11:26:51.347Z,27.30
2019-01-30T11:27:51.334Z,23.20
2019-01-30T11:28:51.373Z,25.80
2019-01-30T11:29:51.309Z,29.10
2019-01-30T11:30:51.322Z,29.30
2019-01-30T11:31:51.292Z,24.40
2019-01-30T11:32:51.291Z,27.80
2019-01-30T11:33:51.269Z,25.90
2019-01-30T11:34:51.330Z,26.40
2019-01-30T11:35:51.257Z,26.80
2019-01-30T11:36:51.231Z,26.70
2019-01-30T11:37:51.225Z,27.90
2019-01-30T11:38:51.210Z,25.40
2019-01-30T11:39:51.202Z,27.70
2019-01-30T11:40:51.240Z,23.50
2019-01-30T11:41:51.180Z,30.60
2019-01-30T11:42:51.174Z,27.50
2019-01-30T11:44:01.439Z,26.70
2019-01-30T11:44:51.152Z,30.80
2019-01-30T11:45:51.138Z,29.20
2019-01-30T11:46:51.144Z,27.00
2019-01-30T11:47:51.122Z,25.20
2019-01-30T11:48:56.464Z,26.00
2019-01-30T11:49:52.093Z,24.20
2019-01-30T11:50:51.099Z,23.30
2019-01-30T11:51:51.079Z,25.00
2019-01-30T11:52:51.096Z,24.40
2019-01-30T11:53:51.059Z,30.50
2019-01-30T11:54:51.050Z,24.20
2019-01-30T11:55:51.043Z,27.50
2019-01-30T11:56:51.151Z,26.10
2019-01-30T11:57:51.011Z,30.60
2019-01-30T11:58:51.178Z,25.90
2019-01-30T11:59:50.990Z,23.40
2019-01-30T12:00:50.988Z,27.30
2019-01-30T12:01:50.967Z,25.10
2019-01-30T12:02:50.965Z,27.80
2019-01-30T12:03:50.950Z,24.30
2019-01-30T12:04:51.429Z,30.60
2019-01-30T12:05:50.929Z,30.10
2019-01-30T12:06:50.922Z,21.30
2019-01-30T12:07:50.905Z,24.60
2019-01-30T12:08:50.901Z,23.40
2019-01-30T12:09:50.887Z,26.60
2019-01-30T12:10:50.916Z,24.80
2019-01-30T12:11:50.867Z,29.50
2019-01-30T12:12:50.861Z,27.80
2019-01-30T12:13:50.849Z,26.10
2019-01-30T12:15:01.456Z,26.80
2019-01-30T12:15:50.825Z,26.20
2019-01-30T12:16:50.856Z,28.40
2019-01-30T12:17:50.800Z,24.60
2019-01-30T12:18:50.802Z,27.30
2019-01-30T12:19:50.790Z,24.50
2019-01-30T12:20:51.921Z,29.00
2019-01-30T12:21:50.760Z,26.50
2019-01-30T12:22:50.920Z,21.60
2019-01-30T12:23:50.738Z,23.80
2019-01-30T12:24:50.734Z,25.70
2019-01-30T12:25:50.720Z,28.60
2019-01-30T12:26:50.711Z,27.50
2019-01-30T12:27:51.157Z,27.40
2019-01-30T12:28:50.727Z,26.20
2019-01-30T12:29:50.686Z,31.80
2019-01-30T12:30:50.666Z,27.40
2019-01-30T12:31:50.660Z,26.60
2019-01-30T12:32:50.641Z,26.60
2019-01-30T12:33:50.636Z,23.40
2019-01-30T12:34:50.802Z,24.60
2019-01-30T12:35:50.623Z,26.70
2019-01-30T12:36:50.601Z,26.30
2019-01-30T12:37:50.592Z,23.90
2019-01-30T12:38:50.633Z,24.40
2019-01-30T12:39:50.575Z,27.00
2019-01-30T12:40:50.580Z,27.40
2019-01-30T12:41:50.556Z,24.40
2019-01-30T12:42:50.543Z,26.30
2019-01-30T12:43:50.530Z,22.50
2019-01-30T12:44:50.518Z,23.60
2019-01-30T12:46:00.976Z,28.30
2019-01-30T12:46:50.499Z,28.60
2019-01-30T12:47:50.489Z,29.70
2019-01-30T12:48:50.479Z,22.70
2019-01-30T12:49:50.466Z,27.70
2019-01-30T12:50:50.457Z,29.10
2019-01-30T12:51:50.652Z,25.20
2019-01-30T12:52:50.431Z,27.20